RYR35DU LEMG-EYKA
Flight info
| Callsign | RYR35DU |
|---|---|
| Flight time | 3h 58m |
| Altitude | 36000 |
| Route | RIXUR M445 SOPET M985 LUMAS DCT UNANA DCT STP DCT RAPED DCT PIGOS DCT EKSID DCT NOSTA DCT NOPMU DCT MALUG/N0439F370 DCT LANUX DCT DESEN DCT UVROB/N0430F330 N871 ASBIM DCT BOKSU DCT ADIDU |
| Aircraft | B38M/M-SDE1FGHILORVWXY/HB1 |
Departure
| Time | 2026-04-26 16:23 |
|---|---|
| Airport | Málaga-Costa del Sol Airport (LEMG) |
Arrival
| Time | 2026-04-26 20:21 |
|---|---|
| Airport | Kaunas International Airport (EYKA) |
| Time | Latitude | Longitude | Altitude | Speed | Heading |
|---|---|---|---|---|---|
| 2026-04-26 15:29 | 36.67662 | -4.49470 | 44 ft | 0 kts | 43° |
| 2026-04-26 16:10 | 36.67658 | -4.49474 | 43 ft | 3 kts | 43° |
| 2026-04-26 16:10 | 36.67643 | -4.49491 | 41 ft | 3 kts | 40° |
| 2026-04-26 16:11 | 36.67627 | -4.49506 | 42 ft | 3 kts | 31° |
| 2026-04-26 16:11 | 36.67609 | -4.49516 | 43 ft | 3 kts | 3° |
| 2026-04-26 16:11 | 36.67595 | -4.49511 | 42 ft | 2 kts | 313° |
| 2026-04-26 16:11 | 36.67590 | -4.49505 | 44 ft | 0 kts | 313° |
| 2026-04-26 16:15 | 36.67592 | -4.49507 | 44 ft | 1 kts | 313° |
| 2026-04-26 16:16 | 36.67630 | -4.49559 | 44 ft | 6 kts | 311° |
| 2026-04-26 16:16 | 36.67630 | -4.49597 | 44 ft | 5 kts | 231° |
| 2026-04-26 16:16 | 36.67601 | -4.49628 | 44 ft | 6 kts | 220° |
| 2026-04-26 16:16 | 36.67564 | -4.49669 | 45 ft | 7 kts | 231° |
| 2026-04-26 16:17 | 36.67568 | -4.49724 | 44 ft | 7 kts | 308° |
| 2026-04-26 16:17 | 36.67592 | -4.49757 | 46 ft | 8 kts | 311° |
| 2026-04-26 16:17 | 36.67635 | -4.49817 | 46 ft | 11 kts | 312° |
| 2026-04-26 16:17 | 36.67693 | -4.49898 | 45 ft | 14 kts | 311° |
| 2026-04-26 16:18 | 36.67759 | -4.49993 | 46 ft | 15 kts | 311° |
| 2026-04-26 16:18 | 36.67909 | -4.50206 | 47 ft | 18 kts | 310° |
| 2026-04-26 16:19 | 36.68063 | -4.50420 | 46 ft | 17 kts | 310° |
| 2026-04-26 16:19 | 36.68141 | -4.50532 | 47 ft | 16 kts | 312° |
| 2026-04-26 16:19 | 36.68294 | -4.50744 | 48 ft | 17 kts | 312° |
| 2026-04-26 16:20 | 36.68368 | -4.50846 | 51 ft | 16 kts | 311° |
| 2026-04-26 16:20 | 36.68502 | -4.51046 | 55 ft | 13 kts | 288° |
| 2026-04-26 16:20 | 36.68486 | -4.51145 | 61 ft | 10 kts | 252° |
| 2026-04-26 16:21 | 36.68465 | -4.51222 | 57 ft | 8 kts | 243° |
| 2026-04-26 16:21 | 36.68446 | -4.51240 | 63 ft | 1 kts | 192° |
| 2026-04-26 16:21 | 36.68440 | -4.51239 | 59 ft | 1 kts | 165° |
| 2026-04-26 16:21 | 36.68438 | -4.51236 | 59 ft | 1 kts | 140° |
| 2026-04-26 16:22 | 36.68409 | -4.51196 | 64 ft | 22 kts | 132° |
| 2026-04-26 16:22 | 36.68126 | -4.50802 | 55 ft | 98 kts | 131° |
| 2026-04-26 16:22 | 36.67541 | -4.49982 | 59 ft | 156 kts | 131° |
| 2026-04-26 16:22 | 36.66774 | -4.48910 | 544 ft | 171 kts | 130° |
| 2026-04-26 16:23 | 36.65994 | -4.47812 | 1449 ft | 168 kts | 130° |
| 2026-04-26 16:23 | 36.65161 | -4.46653 | 1935 ft | 190 kts | 130° |
| 2026-04-26 16:23 | 36.64224 | -4.45342 | 2325 ft | 216 kts | 130° |
| 2026-04-26 16:23 | 36.63196 | -4.43901 | 3099 ft | 218 kts | 130° |
| 2026-04-26 16:24 | 36.62190 | -4.42491 | 4027 ft | 221 kts | 130° |
| 2026-04-26 16:24 | 36.61150 | -4.41038 | 4816 ft | 226 kts | 129° |
| 2026-04-26 16:24 | 36.60199 | -4.39488 | 5635 ft | 227 kts | 112° |
| 2026-04-26 16:24 | 36.59780 | -4.37600 | 6435 ft | 228 kts | 102° |
| 2026-04-26 16:25 | 36.59422 | -4.35674 | 7143 ft | 233 kts | 102° |
| 2026-04-26 16:25 | 36.59065 | -4.33693 | 7908 ft | 237 kts | 102° |
| 2026-04-26 16:25 | 36.58711 | -4.31679 | 8642 ft | 240 kts | 102° |
| 2026-04-26 16:25 | 36.58356 | -4.29630 | 9414 ft | 243 kts | 101° |
| 2026-04-26 16:26 | 36.58239 | -4.27477 | 9902 ft | 259 kts | 84° |
| 2026-04-26 16:26 | 36.58418 | -4.25165 | 10305 ft | 276 kts | 85° |
| 2026-04-26 16:26 | 36.58598 | -4.22733 | 10853 ft | 285 kts | 85° |
| 2026-04-26 16:26 | 36.58782 | -4.20268 | 11609 ft | 288 kts | 85° |
| 2026-04-26 16:27 | 36.58968 | -4.17771 | 12323 ft | 292 kts | 85° |
| 2026-04-26 16:27 | 36.59158 | -4.15228 | 13056 ft | 296 kts | 85° |
| 2026-04-26 16:27 | 36.59350 | -4.12655 | 13769 ft | 301 kts | 85° |
| 2026-04-26 16:27 | 36.59544 | -4.10041 | 14433 ft | 305 kts | 85° |
| 2026-04-26 16:28 | 36.59916 | -4.07440 | 15066 ft | 309 kts | 68° |
| 2026-04-26 16:28 | 36.60940 | -4.05094 | 15767 ft | 310 kts | 59° |
| 2026-04-26 16:28 | 36.62056 | -4.02762 | 16352 ft | 315 kts | 59° |
| 2026-04-26 16:28 | 36.63162 | -4.00444 | 17027 ft | 317 kts | 59° |
| 2026-04-26 16:29 | 36.64388 | -3.98127 | 17461 ft | 328 kts | 48° |
| 2026-04-26 16:29 | 36.66224 | -3.96323 | 17617 ft | 345 kts | 30° |
| 2026-04-26 16:29 | 36.68336 | -3.94778 | 17882 ft | 359 kts | 31° |
| 2026-04-26 16:29 | 36.70505 | -3.93179 | 18434 ft | 363 kts | 31° |
| 2026-04-26 16:30 | 36.72689 | -3.91585 | 18948 ft | 365 kts | 30° |
| 2026-04-26 16:30 | 36.74892 | -3.89977 | 19438 ft | 368 kts | 30° |
| 2026-04-26 16:30 | 36.77113 | -3.88359 | 19943 ft | 371 kts | 30° |
| 2026-04-26 16:30 | 36.79362 | -3.86721 | 20457 ft | 374 kts | 30° |
| 2026-04-26 16:31 | 36.81617 | -3.85078 | 20953 ft | 377 kts | 30° |
| 2026-04-26 16:31 | 36.83891 | -3.83420 | 21468 ft | 379 kts | 30° |
| 2026-04-26 16:31 | 36.86180 | -3.81751 | 21948 ft | 382 kts | 30° |
| 2026-04-26 16:31 | 36.88457 | -3.80088 | 22474 ft | 385 kts | 30° |
| 2026-04-26 16:32 | 36.90776 | -3.78393 | 22973 ft | 388 kts | 30° |
| 2026-04-26 16:32 | 36.92351 | -3.77240 | 23310 ft | 389 kts | 30° |
| 2026-04-26 16:32 | 36.95466 | -3.74962 | 23909 ft | 393 kts | 30° |
| 2026-04-26 16:32 | 36.97831 | -3.73231 | 24341 ft | 395 kts | 30° |
| 2026-04-26 16:33 | 37.00214 | -3.71483 | 24750 ft | 398 kts | 31° |
| 2026-04-26 16:33 | 37.02606 | -3.69725 | 25169 ft | 400 kts | 31° |
| 2026-04-26 16:33 | 37.05017 | -3.67955 | 25585 ft | 402 kts | 31° |
| 2026-04-26 16:33 | 37.07444 | -3.66179 | 25958 ft | 405 kts | 31° |
| 2026-04-26 16:34 | 37.09879 | -3.64380 | 26371 ft | 407 kts | 33° |
| 2026-04-26 16:34 | 37.12049 | -3.62097 | 26761 ft | 408 kts | 47° |
| 2026-04-26 16:34 | 37.14027 | -3.59535 | 27125 ft | 411 kts | 45° |
| 2026-04-26 16:34 | 37.16020 | -3.57001 | 27488 ft | 413 kts | 46° |
| 2026-04-26 16:35 | 37.18033 | -3.54417 | 27880 ft | 415 kts | 46° |
| 2026-04-26 16:35 | 37.20058 | -3.51806 | 28248 ft | 418 kts | 46° |
| 2026-04-26 16:35 | 37.22095 | -3.49173 | 28630 ft | 419 kts | 46° |
| 2026-04-26 16:35 | 37.24130 | -3.46540 | 28991 ft | 421 kts | 46° |
| 2026-04-26 16:36 | 37.26172 | -3.43887 | 29361 ft | 423 kts | 46° |
| 2026-04-26 16:36 | 37.28200 | -3.41264 | 29711 ft | 425 kts | 46° |
| 2026-04-26 16:36 | 37.30267 | -3.38573 | 30025 ft | 427 kts | 46° |
| 2026-04-26 16:36 | 37.32345 | -3.35881 | 30342 ft | 429 kts | 46° |
| 2026-04-26 16:37 | 37.34424 | -3.33182 | 30631 ft | 430 kts | 46° |
| 2026-04-26 16:37 | 37.36512 | -3.30467 | 30925 ft | 432 kts | 46° |
| 2026-04-26 16:37 | 37.38608 | -3.27738 | 31214 ft | 434 kts | 47° |
| 2026-04-26 16:37 | 37.40001 | -3.25924 | 31409 ft | 435 kts | 47° |
| 2026-04-26 16:38 | 37.42793 | -3.22283 | 31774 ft | 437 kts | 47° |
| 2026-04-26 16:38 | 37.44902 | -3.19529 | 32044 ft | 439 kts | 47° |
| 2026-04-26 16:38 | 37.47032 | -3.16746 | 32326 ft | 441 kts | 47° |
| 2026-04-26 16:38 | 37.49163 | -3.13961 | 32692 ft | 440 kts | 47° |
| 2026-04-26 16:39 | 37.51282 | -3.11188 | 33080 ft | 439 kts | 47° |
| 2026-04-26 16:39 | 37.53396 | -3.08419 | 33449 ft | 438 kts | 47° |
| 2026-04-26 16:39 | 37.55509 | -3.05650 | 33815 ft | 437 kts | 47° |
| 2026-04-26 16:39 | 37.57612 | -3.02891 | 34157 ft | 437 kts | 47° |
| 2026-04-26 16:40 | 37.59722 | -3.00120 | 34441 ft | 436 kts | 47° |
| 2026-04-26 16:40 | 37.61804 | -2.97337 | 34704 ft | 436 kts | 47° |
| 2026-04-26 16:40 | 37.63887 | -2.94623 | 34951 ft | 437 kts | 47° |
| 2026-04-26 16:40 | 37.65998 | -2.91862 | 35199 ft | 437 kts | 47° |
| 2026-04-26 16:41 | 37.68100 | -2.89097 | 35451 ft | 437 kts | 47° |
| 2026-04-26 16:41 | 37.70204 | -2.86323 | 35692 ft | 437 kts | 47° |
| 2026-04-26 16:41 | 37.72298 | -2.83532 | 35922 ft | 437 kts | 46° |
| 2026-04-26 16:41 | 37.74413 | -2.80769 | 36065 ft | 438 kts | 46° |
| 2026-04-26 16:42 | 37.78575 | -2.75157 | 36079 ft | 436 kts | 45° |
| 2026-04-26 16:42 | 37.82806 | -2.69643 | 36083 ft | 436 kts | 46° |
| 2026-04-26 16:43 | 37.86970 | -2.64128 | 36087 ft | 436 kts | 46° |
| 2026-04-26 16:43 | 37.91150 | -2.58573 | 36095 ft | 436 kts | 46° |
| 2026-04-26 16:44 | 37.95331 | -2.53004 | 36101 ft | 435 kts | 46° |
| 2026-04-26 16:44 | 37.99506 | -2.47434 | 36102 ft | 436 kts | 46° |
| 2026-04-26 16:45 | 38.03686 | -2.41847 | 36108 ft | 436 kts | 46° |
| 2026-04-26 16:45 | 38.07837 | -2.36290 | 36114 ft | 436 kts | 47° |
| 2026-04-26 16:46 | 38.12013 | -2.30688 | 36110 ft | 436 kts | 47° |
| 2026-04-26 16:46 | 38.16193 | -2.25071 | 36112 ft | 436 kts | 47° |
| 2026-04-26 16:47 | 38.20336 | -2.19482 | 36115 ft | 437 kts | 49° |
| 2026-04-26 16:47 | 38.24097 | -2.13393 | 36116 ft | 438 kts | 52° |
| 2026-04-26 16:48 | 38.27882 | -2.07313 | 36118 ft | 438 kts | 52° |
| 2026-04-26 16:48 | 38.31686 | -2.01226 | 36115 ft | 439 kts | 52° |
| 2026-04-26 16:49 | 38.35467 | -1.95170 | 36114 ft | 439 kts | 52° |
| 2026-04-26 16:49 | 38.39243 | -1.89040 | 36114 ft | 440 kts | 52° |
| 2026-04-26 16:50 | 38.43018 | -1.82899 | 36113 ft | 440 kts | 52° |
| 2026-04-26 16:50 | 38.46784 | -1.76762 | 36114 ft | 440 kts | 52° |
| 2026-04-26 16:51 | 38.50558 | -1.70601 | 36116 ft | 440 kts | 52° |
| 2026-04-26 16:51 | 38.54322 | -1.64444 | 36117 ft | 440 kts | 53° |
| 2026-04-26 16:52 | 38.57452 | -1.59315 | 36117 ft | 440 kts | 53° |
| 2026-04-26 16:52 | 38.61828 | -1.52131 | 36116 ft | 440 kts | 53° |
| 2026-04-26 16:53 | 38.65592 | -1.45938 | 36119 ft | 440 kts | 53° |
| 2026-04-26 16:53 | 38.69352 | -1.39741 | 36120 ft | 440 kts | 53° |
| 2026-04-26 16:54 | 38.73083 | -1.33582 | 36119 ft | 440 kts | 53° |
| 2026-04-26 16:54 | 38.76833 | -1.27380 | 36116 ft | 440 kts | 53° |
| 2026-04-26 16:55 | 38.80578 | -1.21174 | 36119 ft | 439 kts | 53° |
| 2026-04-26 16:55 | 38.84298 | -1.15001 | 36121 ft | 439 kts | 53° |
| 2026-04-26 16:56 | 38.89905 | -1.05669 | 36122 ft | 439 kts | 53° |
| 2026-04-26 16:57 | 38.93641 | -0.99438 | 36122 ft | 440 kts | 53° |
| 2026-04-26 16:57 | 38.99218 | -0.90113 | 36121 ft | 440 kts | 53° |
| 2026-04-26 16:58 | 39.01715 | -0.85929 | 36120 ft | 441 kts | 53° |
| 2026-04-26 16:59 | 39.09030 | -0.75006 | 36144 ft | 441 kts | 40° |
| 2026-04-26 17:00 | 39.18482 | -0.64885 | 36121 ft | 443 kts | 41° |
| 2026-04-26 17:00 | 39.25624 | -0.57255 | 36124 ft | 444 kts | 41° |
| 2026-04-26 17:01 | 39.30473 | -0.52379 | 36136 ft | 445 kts | 38° |
| 2026-04-26 17:01 | 39.35439 | -0.47576 | 36127 ft | 445 kts | 38° |
| 2026-04-26 17:02 | 39.40403 | -0.42738 | 36128 ft | 446 kts | 38° |
| 2026-04-26 17:02 | 39.45333 | -0.37925 | 36132 ft | 446 kts | 38° |
| 2026-04-26 17:03 | 39.50292 | -0.33073 | 36130 ft | 446 kts | 38° |
| 2026-04-26 17:03 | 39.55244 | -0.28221 | 36117 ft | 446 kts | 38° |
| 2026-04-26 17:04 | 39.60160 | -0.23392 | 36130 ft | 445 kts | 38° |
| 2026-04-26 17:04 | 39.65098 | -0.18534 | 36131 ft | 445 kts | 38° |
| 2026-04-26 17:05 | 39.69192 | -0.14499 | 36129 ft | 444 kts | 38° |
| 2026-04-26 17:05 | 39.74944 | -0.08820 | 36135 ft | 444 kts | 38° |
| 2026-04-26 17:06 | 39.79026 | -0.04783 | 36133 ft | 443 kts | 38° |
| 2026-04-26 17:06 | 39.83856 | 0.00188 | 36116 ft | 441 kts | 47° |
| 2026-04-26 17:07 | 39.88038 | 0.05999 | 36120 ft | 441 kts | 48° |
| 2026-04-26 17:07 | 39.92242 | 0.11829 | 36134 ft | 442 kts | 48° |
| 2026-04-26 17:08 | 39.96449 | 0.17687 | 36132 ft | 442 kts | 48° |
| 2026-04-26 17:08 | 40.00647 | 0.23543 | 36147 ft | 443 kts | 48° |
| 2026-04-26 17:09 | 40.04151 | 0.28435 | 36143 ft | 443 kts | 48° |
| 2026-04-26 17:09 | 40.09055 | 0.35293 | 36143 ft | 444 kts | 48° |
| 2026-04-26 17:10 | 40.13271 | 0.41202 | 36139 ft | 444 kts | 48° |
| 2026-04-26 17:10 | 40.17462 | 0.47087 | 36140 ft | 444 kts | 48° |
| 2026-04-26 17:11 | 40.21677 | 0.53018 | 36124 ft | 445 kts | 48° |
| 2026-04-26 17:11 | 40.25893 | 0.58965 | 36125 ft | 445 kts | 48° |
| 2026-04-26 17:12 | 40.32216 | 0.67903 | 36131 ft | 446 kts | 48° |
| 2026-04-26 17:13 | 40.38556 | 0.76887 | 36131 ft | 447 kts | 48° |
| 2026-04-26 17:14 | 40.44850 | 0.85847 | 36121 ft | 447 kts | 47° |
| 2026-04-26 17:14 | 40.51178 | 0.94874 | 36127 ft | 447 kts | 47° |
| 2026-04-26 17:15 | 40.57492 | 1.03916 | 36123 ft | 447 kts | 47° |
| 2026-04-26 17:16 | 40.61672 | 1.09921 | 36123 ft | 447 kts | 47° |
| 2026-04-26 17:16 | 40.65881 | 1.15977 | 36123 ft | 448 kts | 47° |
| 2026-04-26 17:17 | 40.70080 | 1.22033 | 36127 ft | 447 kts | 47° |
| 2026-04-26 17:17 | 40.74279 | 1.28092 | 36124 ft | 447 kts | 47° |
| 2026-04-26 17:18 | 40.78476 | 1.34162 | 36127 ft | 447 kts | 47° |
| 2026-04-26 17:18 | 40.82641 | 1.40197 | 36131 ft | 447 kts | 47° |
| 2026-04-26 17:19 | 40.88915 | 1.49314 | 36131 ft | 447 kts | 47° |
| 2026-04-26 17:19 | 40.93094 | 1.55405 | 36129 ft | 446 kts | 47° |
| 2026-04-26 17:20 | 40.96560 | 1.60465 | 36127 ft | 446 kts | 47° |
| 2026-04-26 17:20 | 41.01408 | 1.67558 | 36131 ft | 446 kts | 47° |
| 2026-04-26 17:21 | 41.05577 | 1.73670 | 36127 ft | 446 kts | 47° |
| 2026-04-26 17:21 | 41.09738 | 1.79781 | 36133 ft | 446 kts | 47° |
| 2026-04-26 17:22 | 41.13873 | 1.85866 | 36128 ft | 446 kts | 47° |
| 2026-04-26 17:22 | 41.18032 | 1.92000 | 36128 ft | 446 kts | 47° |
| 2026-04-26 17:23 | 41.22166 | 1.98109 | 36132 ft | 447 kts | 47° |
| 2026-04-26 17:23 | 41.26326 | 2.04269 | 36128 ft | 447 kts | 47° |
| 2026-04-26 17:24 | 41.30193 | 2.10727 | 36113 ft | 447 kts | 64° |
| 2026-04-26 17:24 | 41.31237 | 2.14615 | 36142 ft | 447 kts | 75° |
| 2026-04-26 17:24 | 41.32029 | 2.18644 | 36127 ft | 450 kts | 75° |
| 2026-04-26 17:25 | 41.33532 | 2.26686 | 36128 ft | 450 kts | 76° |
| 2026-04-26 17:25 | 41.34978 | 2.34791 | 36132 ft | 450 kts | 76° |
| 2026-04-26 17:26 | 41.36406 | 2.42901 | 36130 ft | 450 kts | 76° |
| 2026-04-26 17:26 | 41.37829 | 2.51015 | 36129 ft | 450 kts | 76° |
| 2026-04-26 17:27 | 41.39249 | 2.59156 | 36128 ft | 450 kts | 76° |
| 2026-04-26 17:27 | 41.40653 | 2.67235 | 36130 ft | 451 kts | 76° |
| 2026-04-26 17:28 | 41.42070 | 2.75427 | 36129 ft | 451 kts | 76° |
| 2026-04-26 17:28 | 41.43467 | 2.83544 | 36127 ft | 452 kts | 76° |
| 2026-04-26 17:29 | 41.44633 | 2.90346 | 36125 ft | 452 kts | 77° |
| 2026-04-26 17:29 | 41.46258 | 2.99866 | 36125 ft | 452 kts | 77° |
| 2026-04-26 17:30 | 41.47648 | 3.08053 | 36129 ft | 453 kts | 77° |
| 2026-04-26 17:30 | 41.49035 | 3.16243 | 36124 ft | 453 kts | 77° |
| 2026-04-26 17:31 | 41.50415 | 3.24460 | 36129 ft | 453 kts | 77° |
| 2026-04-26 17:31 | 41.51791 | 3.32679 | 36128 ft | 454 kts | 77° |
| 2026-04-26 17:32 | 41.53162 | 3.40904 | 36123 ft | 454 kts | 77° |
| 2026-04-26 17:32 | 41.54523 | 3.49109 | 36127 ft | 454 kts | 77° |
| 2026-04-26 17:33 | 41.55885 | 3.57361 | 36131 ft | 455 kts | 77° |
| 2026-04-26 17:34 | 41.57920 | 3.69760 | 36126 ft | 455 kts | 77° |
| 2026-04-26 17:34 | 41.59262 | 3.77985 | 36127 ft | 456 kts | 77° |
| 2026-04-26 17:35 | 41.60609 | 3.86282 | 36121 ft | 458 kts | 77° |
| 2026-04-26 17:35 | 41.61961 | 3.94649 | 36127 ft | 460 kts | 77° |
| 2026-04-26 17:36 | 41.63306 | 4.03010 | 36122 ft | 460 kts | 77° |
| 2026-04-26 17:36 | 41.64634 | 4.11316 | 36124 ft | 460 kts | 77° |
| 2026-04-26 17:37 | 41.65969 | 4.19702 | 36123 ft | 460 kts | 77° |
| 2026-04-26 17:37 | 41.67290 | 4.28045 | 36125 ft | 460 kts | 77° |
| 2026-04-26 17:38 | 41.69270 | 4.40624 | 36121 ft | 460 kts | 77° |
| 2026-04-26 17:38 | 41.70583 | 4.49014 | 36121 ft | 461 kts | 77° |
| 2026-04-26 17:39 | 41.71889 | 4.57405 | 36120 ft | 461 kts | 77° |
| 2026-04-26 17:39 | 41.73608 | 4.65623 | 36106 ft | 457 kts | 60° |
| 2026-04-26 17:40 | 41.75422 | 4.69075 | 36124 ft | 453 kts | 45° |
| 2026-04-26 17:40 | 41.76128 | 4.70069 | 36132 ft | 453 kts | 44° |
| 2026-04-26 17:40 | 41.82041 | 4.78127 | 36121 ft | 456 kts | 43° |
| 2026-04-26 17:41 | 41.86547 | 4.84115 | 36121 ft | 456 kts | 43° |
| 2026-04-26 17:41 | 41.91059 | 4.90097 | 36119 ft | 456 kts | 43° |
| 2026-04-26 17:42 | 41.95583 | 4.96105 | 36119 ft | 456 kts | 43° |
| 2026-04-26 17:42 | 42.00067 | 5.02072 | 36122 ft | 456 kts | 43° |
| 2026-04-26 17:43 | 42.04584 | 5.08094 | 36121 ft | 457 kts | 43° |
| 2026-04-26 17:43 | 42.09099 | 5.14129 | 36121 ft | 457 kts | 43° |
| 2026-04-26 17:44 | 42.13615 | 5.20178 | 36119 ft | 458 kts | 43° |
| 2026-04-26 17:44 | 42.18135 | 5.26242 | 36117 ft | 458 kts | 43° |
| 2026-04-26 17:45 | 42.22624 | 5.32278 | 36117 ft | 459 kts | 43° |
| 2026-04-26 17:45 | 42.27149 | 5.38377 | 36118 ft | 459 kts | 43° |
| 2026-04-26 17:46 | 42.31673 | 5.44488 | 36116 ft | 459 kts | 43° |
| 2026-04-26 17:46 | 42.36185 | 5.50595 | 36115 ft | 459 kts | 43° |
| 2026-04-26 17:47 | 42.39182 | 5.54659 | 36116 ft | 459 kts | 43° |
| 2026-04-26 17:47 | 42.45194 | 5.62830 | 36115 ft | 460 kts | 43° |
| 2026-04-26 17:48 | 42.49705 | 5.68975 | 36113 ft | 460 kts | 43° |
| 2026-04-26 17:48 | 42.54218 | 5.75136 | 36117 ft | 460 kts | 43° |
| 2026-04-26 17:49 | 42.58709 | 5.81282 | 36117 ft | 460 kts | 43° |
| 2026-04-26 17:49 | 42.63226 | 5.87476 | 36119 ft | 460 kts | 43° |
| 2026-04-26 17:50 | 42.67731 | 5.93667 | 36116 ft | 461 kts | 43° |
| 2026-04-26 17:50 | 42.72210 | 5.99836 | 36119 ft | 461 kts | 43° |
| 2026-04-26 17:51 | 42.76712 | 6.06049 | 36122 ft | 461 kts | 43° |
| 2026-04-26 17:51 | 42.81215 | 6.12274 | 36124 ft | 461 kts | 43° |
| 2026-04-26 17:52 | 42.85769 | 6.18429 | 36125 ft | 460 kts | 38° |
| 2026-04-26 17:52 | 42.90655 | 6.24078 | 36130 ft | 460 kts | 38° |
| 2026-04-26 17:53 | 42.95552 | 6.29701 | 36128 ft | 460 kts | 38° |
| 2026-04-26 17:54 | 43.02856 | 6.38100 | 36131 ft | 459 kts | 38° |
| 2026-04-26 17:54 | 43.07749 | 6.43741 | 36134 ft | 459 kts | 38° |
| 2026-04-26 17:55 | 43.09830 | 6.46144 | 36134 ft | 459 kts | 38° |
| 2026-04-26 17:55 | 43.12788 | 6.49563 | 36133 ft | 459 kts | 38° |
| 2026-04-26 17:56 | 43.17672 | 6.55220 | 36135 ft | 459 kts | 38° |
| 2026-04-26 17:56 | 43.22397 | 6.61118 | 36118 ft | 461 kts | 51° |
| 2026-04-26 17:57 | 43.26196 | 6.68246 | 36129 ft | 463 kts | 52° |
| 2026-04-26 17:57 | 43.29968 | 6.75345 | 36139 ft | 463 kts | 52° |
| 2026-04-26 17:58 | 43.37520 | 6.89689 | 36136 ft | 462 kts | 52° |
| 2026-04-26 17:59 | 43.43162 | 7.00452 | 36132 ft | 462 kts | 52° |
| 2026-04-26 17:59 | 43.46917 | 7.07637 | 36132 ft | 462 kts | 52° |
| 2026-04-26 18:00 | 43.50641 | 7.14781 | 36139 ft | 462 kts | 53° |
| 2026-04-26 18:00 | 43.54384 | 7.21976 | 36135 ft | 462 kts | 53° |
| 2026-04-26 18:01 | 43.58113 | 7.29166 | 36134 ft | 461 kts | 53° |
| 2026-04-26 18:01 | 43.61847 | 7.36379 | 36132 ft | 461 kts | 53° |
| 2026-04-26 18:02 | 43.64939 | 7.42368 | 36135 ft | 461 kts | 53° |
| 2026-04-26 18:02 | 43.69283 | 7.50801 | 36142 ft | 460 kts | 53° |
| 2026-04-26 18:03 | 43.72971 | 7.57982 | 36146 ft | 460 kts | 53° |
| 2026-04-26 18:03 | 43.76668 | 7.65196 | 36149 ft | 459 kts | 53° |
| 2026-04-26 18:04 | 43.80359 | 7.72418 | 36151 ft | 458 kts | 53° |
| 2026-04-26 18:04 | 43.82385 | 7.75791 | 36134 ft | 454 kts | 39° |
| 2026-04-26 18:05 | 43.87320 | 7.81230 | 36140 ft | 453 kts | 37° |
| 2026-04-26 18:05 | 43.92263 | 7.86595 | 36151 ft | 453 kts | 36° |
| 2026-04-26 18:06 | 43.96912 | 7.92504 | 36153 ft | 454 kts | 48° |
| 2026-04-26 18:06 | 44.01077 | 7.99064 | 36140 ft | 455 kts | 47° |
| 2026-04-26 18:07 | 44.05274 | 8.05685 | 36132 ft | 455 kts | 47° |
| 2026-04-26 18:07 | 44.09465 | 8.12317 | 36128 ft | 456 kts | 47° |
| 2026-04-26 18:08 | 44.13646 | 8.18948 | 36129 ft | 456 kts | 47° |
| 2026-04-26 18:08 | 44.17827 | 8.25596 | 36135 ft | 456 kts | 47° |
| 2026-04-26 18:09 | 44.21977 | 8.32209 | 36136 ft | 456 kts | 47° |
| 2026-04-26 18:09 | 44.26142 | 8.38860 | 36140 ft | 455 kts | 47° |
| 2026-04-26 18:10 | 44.30310 | 8.45535 | 36151 ft | 455 kts | 47° |
| 2026-04-26 18:10 | 44.34475 | 8.52217 | 36135 ft | 455 kts | 47° |
| 2026-04-26 18:11 | 44.38627 | 8.58896 | 36124 ft | 455 kts | 47° |
| 2026-04-26 18:11 | 44.42782 | 8.65595 | 36138 ft | 455 kts | 47° |
| 2026-04-26 18:12 | 44.46902 | 8.72254 | 36134 ft | 455 kts | 47° |
| 2026-04-26 18:12 | 44.51040 | 8.78958 | 36135 ft | 454 kts | 47° |
| 2026-04-26 18:13 | 44.55173 | 8.85670 | 36125 ft | 455 kts | 47° |
| 2026-04-26 18:13 | 44.59285 | 8.92363 | 36128 ft | 455 kts | 47° |
| 2026-04-26 18:14 | 44.63422 | 8.99112 | 36121 ft | 456 kts | 47° |
| 2026-04-26 18:14 | 44.67557 | 9.05876 | 36114 ft | 456 kts | 47° |
| 2026-04-26 18:15 | 44.71677 | 9.12629 | 36115 ft | 457 kts | 47° |
| 2026-04-26 18:15 | 44.75806 | 9.19415 | 36103 ft | 457 kts | 47° |
| 2026-04-26 18:16 | 44.79942 | 9.26227 | 36109 ft | 457 kts | 47° |
| 2026-04-26 18:16 | 44.86139 | 9.36465 | 36080 ft | 458 kts | 47° |
| 2026-04-26 18:17 | 44.90277 | 9.43324 | 36073 ft | 459 kts | 47° |
| 2026-04-26 18:17 | 44.94394 | 9.50164 | 36062 ft | 459 kts | 47° |
| 2026-04-26 18:18 | 44.98539 | 9.57067 | 36051 ft | 459 kts | 47° |
| 2026-04-26 18:18 | 45.02671 | 9.63963 | 36054 ft | 460 kts | 47° |
| 2026-04-26 18:19 | 45.06774 | 9.70831 | 36055 ft | 460 kts | 47° |
| 2026-04-26 18:19 | 45.10904 | 9.77759 | 36054 ft | 460 kts | 47° |
| 2026-04-26 18:20 | 45.15029 | 9.84695 | 36058 ft | 460 kts | 47° |
| 2026-04-26 18:20 | 45.18446 | 9.90455 | 36060 ft | 459 kts | 47° |
| 2026-04-26 18:21 | 45.23232 | 9.98543 | 36070 ft | 459 kts | 47° |
| 2026-04-26 18:21 | 45.27337 | 10.05498 | 36072 ft | 460 kts | 47° |
| 2026-04-26 18:22 | 45.31449 | 10.12482 | 36075 ft | 460 kts | 47° |
| 2026-04-26 18:22 | 45.35554 | 10.19472 | 36077 ft | 460 kts | 47° |
| 2026-04-26 18:23 | 45.39627 | 10.26423 | 36077 ft | 460 kts | 47° |
| 2026-04-26 18:23 | 45.43730 | 10.33443 | 36079 ft | 460 kts | 47° |
| 2026-04-26 18:24 | 45.47822 | 10.40463 | 36077 ft | 460 kts | 47° |
| 2026-04-26 18:24 | 45.51890 | 10.47459 | 36077 ft | 460 kts | 47° |
| 2026-04-26 18:25 | 45.55976 | 10.54503 | 36087 ft | 461 kts | 48° |
| 2026-04-26 18:25 | 45.60067 | 10.61574 | 36097 ft | 461 kts | 48° |
| 2026-04-26 18:26 | 45.64146 | 10.68642 | 36102 ft | 461 kts | 48° |
| 2026-04-26 18:26 | 45.68203 | 10.75689 | 36117 ft | 461 kts | 48° |
| 2026-04-26 18:27 | 45.72281 | 10.82792 | 36127 ft | 461 kts | 48° |
| 2026-04-26 18:27 | 45.76345 | 10.89886 | 36136 ft | 460 kts | 48° |
| 2026-04-26 18:28 | 45.80414 | 10.97009 | 36142 ft | 461 kts | 48° |
| 2026-04-26 18:28 | 45.84467 | 11.04123 | 36160 ft | 461 kts | 48° |
| 2026-04-26 18:29 | 45.88495 | 11.11209 | 36149 ft | 460 kts | 48° |
| 2026-04-26 18:29 | 45.92548 | 11.18357 | 36162 ft | 461 kts | 48° |
| 2026-04-26 18:30 | 45.96597 | 11.25516 | 36167 ft | 461 kts | 48° |
| 2026-04-26 18:30 | 46.00628 | 11.32663 | 36169 ft | 460 kts | 49° |
| 2026-04-26 18:31 | 46.04628 | 11.39773 | 36147 ft | 460 kts | 49° |
| 2026-04-26 18:31 | 46.08656 | 11.46950 | 36169 ft | 461 kts | 49° |
| 2026-04-26 18:32 | 46.12672 | 11.54125 | 36156 ft | 460 kts | 49° |
| 2026-04-26 18:32 | 46.16685 | 11.61312 | 36139 ft | 459 kts | 49° |
| 2026-04-26 18:33 | 46.20688 | 11.68501 | 36126 ft | 459 kts | 49° |
| 2026-04-26 18:33 | 46.24689 | 11.75704 | 36133 ft | 459 kts | 49° |
| 2026-04-26 18:34 | 46.28689 | 11.82925 | 36125 ft | 459 kts | 49° |
| 2026-04-26 18:34 | 46.32677 | 11.90141 | 36112 ft | 458 kts | 49° |
| 2026-04-26 18:35 | 46.36662 | 11.97374 | 36095 ft | 460 kts | 49° |
| 2026-04-26 18:35 | 46.40628 | 12.04587 | 36124 ft | 460 kts | 49° |
| 2026-04-26 18:36 | 46.44633 | 12.11893 | 36134 ft | 460 kts | 49° |
| 2026-04-26 18:36 | 46.48585 | 12.19115 | 36145 ft | 460 kts | 49° |
| 2026-04-26 18:37 | 46.52565 | 12.26409 | 36151 ft | 461 kts | 49° |
| 2026-04-26 18:37 | 46.54583 | 12.30112 | 36340 ft | 461 kts | 49° |
| 2026-04-26 18:37 | 46.56541 | 12.33711 | 36565 ft | 462 kts | 49° |
| 2026-04-26 18:38 | 46.58540 | 12.37389 | 36794 ft | 462 kts | 49° |
| 2026-04-26 18:38 | 46.60534 | 12.41063 | 37028 ft | 462 kts | 49° |
| 2026-04-26 18:38 | 46.62523 | 12.44734 | 37186 ft | 463 kts | 49° |
| 2026-04-26 18:38 | 46.64515 | 12.48412 | 37167 ft | 463 kts | 49° |
| 2026-04-26 18:39 | 46.68487 | 12.55766 | 37154 ft | 462 kts | 49° |
| 2026-04-26 18:39 | 46.72817 | 12.62601 | 37166 ft | 457 kts | 38° |
| 2026-04-26 18:40 | 46.77558 | 12.68814 | 37157 ft | 459 kts | 39° |
| 2026-04-26 18:40 | 46.82302 | 12.75033 | 37153 ft | 458 kts | 39° |
| 2026-04-26 18:41 | 46.87057 | 12.81277 | 37138 ft | 458 kts | 39° |
| 2026-04-26 18:41 | 46.91798 | 12.87516 | 37162 ft | 459 kts | 39° |
| 2026-04-26 18:42 | 46.96552 | 12.93789 | 37192 ft | 460 kts | 39° |
| 2026-04-26 18:42 | 47.01270 | 13.00029 | 37144 ft | 458 kts | 39° |
| 2026-04-26 18:43 | 47.06008 | 13.06312 | 37164 ft | 460 kts | 39° |
| 2026-04-26 18:43 | 47.10749 | 13.12616 | 37123 ft | 460 kts | 39° |
| 2026-04-26 18:44 | 47.14727 | 13.17916 | 37203 ft | 461 kts | 39° |
| 2026-04-26 18:44 | 47.19455 | 13.24230 | 37171 ft | 458 kts | 39° |
| 2026-04-26 18:45 | 47.24148 | 13.30514 | 37176 ft | 459 kts | 39° |
| 2026-04-26 18:45 | 47.28871 | 13.36853 | 37176 ft | 459 kts | 39° |
| 2026-04-26 18:46 | 47.33565 | 13.43171 | 37186 ft | 459 kts | 39° |
| 2026-04-26 18:46 | 47.38274 | 13.49523 | 37174 ft | 458 kts | 39° |
| 2026-04-26 18:47 | 47.42992 | 13.55904 | 37176 ft | 459 kts | 39° |
| 2026-04-26 18:47 | 47.47703 | 13.62291 | 37182 ft | 459 kts | 39° |
| 2026-04-26 18:48 | 47.52372 | 13.68639 | 37178 ft | 459 kts | 39° |
| 2026-04-26 18:48 | 47.57087 | 13.75064 | 37177 ft | 459 kts | 40° |
| 2026-04-26 18:49 | 47.61793 | 13.81495 | 37182 ft | 459 kts | 39° |
| 2026-04-26 18:49 | 47.66468 | 13.87898 | 37182 ft | 460 kts | 40° |
| 2026-04-26 18:50 | 47.71176 | 13.94364 | 37189 ft | 459 kts | 40° |
| 2026-04-26 18:50 | 47.75837 | 14.00781 | 37187 ft | 459 kts | 40° |
| 2026-04-26 18:51 | 47.80520 | 14.07246 | 37192 ft | 458 kts | 40° |
| 2026-04-26 18:51 | 47.85191 | 14.13712 | 37190 ft | 458 kts | 40° |
| 2026-04-26 18:52 | 47.89857 | 14.20185 | 37198 ft | 458 kts | 40° |
| 2026-04-26 18:52 | 47.94493 | 14.26634 | 37197 ft | 458 kts | 40° |
| 2026-04-26 18:53 | 47.99160 | 14.33144 | 37200 ft | 458 kts | 40° |
| 2026-04-26 18:53 | 48.03824 | 14.39665 | 37205 ft | 458 kts | 40° |
| 2026-04-26 18:54 | 48.08467 | 14.46174 | 37208 ft | 459 kts | 40° |
| 2026-04-26 18:54 | 48.13095 | 14.52680 | 37210 ft | 459 kts | 40° |
| 2026-04-26 18:55 | 48.17754 | 14.59247 | 37206 ft | 459 kts | 40° |
| 2026-04-26 18:55 | 48.22408 | 14.65822 | 37217 ft | 459 kts | 40° |
| 2026-04-26 18:56 | 48.27039 | 14.72383 | 37220 ft | 460 kts | 40° |
| 2026-04-26 18:56 | 48.31694 | 14.78995 | 37226 ft | 460 kts | 40° |
| 2026-04-26 18:57 | 48.35559 | 14.84497 | 37220 ft | 460 kts | 40° |
| 2026-04-26 18:57 | 48.40962 | 14.92212 | 37226 ft | 460 kts | 40° |
| 2026-04-26 18:58 | 48.45612 | 14.98869 | 37233 ft | 460 kts | 40° |
| 2026-04-26 18:58 | 48.50252 | 15.05529 | 37245 ft | 460 kts | 40° |
| 2026-04-26 18:59 | 48.54887 | 15.12202 | 37254 ft | 460 kts | 40° |
| 2026-04-26 18:59 | 48.59496 | 15.18853 | 37249 ft | 460 kts | 40° |
| 2026-04-26 19:00 | 48.64132 | 15.25562 | 37248 ft | 460 kts | 40° |
| 2026-04-26 19:00 | 48.68761 | 15.32277 | 37249 ft | 460 kts | 40° |
| 2026-04-26 19:01 | 48.73379 | 15.38991 | 37259 ft | 461 kts | 40° |
| 2026-04-26 19:01 | 48.78001 | 15.45728 | 37258 ft | 461 kts | 40° |
| 2026-04-26 19:02 | 48.82594 | 15.52442 | 37261 ft | 461 kts | 40° |
| 2026-04-26 19:02 | 48.86466 | 15.58113 | 37257 ft | 461 kts | 40° |
| 2026-04-26 19:03 | 48.92004 | 15.65647 | 37269 ft | 459 kts | 37° |
| 2026-04-26 19:03 | 48.96830 | 15.72036 | 37261 ft | 459 kts | 37° |
| 2026-04-26 19:04 | 49.01616 | 15.78407 | 37255 ft | 459 kts | 37° |
| 2026-04-26 19:04 | 49.06425 | 15.84829 | 37251 ft | 458 kts | 37° |
| 2026-04-26 19:05 | 49.13592 | 15.94429 | 37247 ft | 458 kts | 37° |
| 2026-04-26 19:06 | 49.18378 | 16.00862 | 37244 ft | 458 kts | 37° |
| 2026-04-26 19:06 | 49.23167 | 16.07316 | 37242 ft | 458 kts | 37° |
| 2026-04-26 19:07 | 49.27947 | 16.13776 | 37247 ft | 457 kts | 37° |
| 2026-04-26 19:07 | 49.32675 | 16.20182 | 37246 ft | 457 kts | 37° |
| 2026-04-26 19:08 | 49.37435 | 16.26650 | 37254 ft | 456 kts | 37° |
| 2026-04-26 19:08 | 49.42200 | 16.33140 | 37264 ft | 456 kts | 37° |
| 2026-04-26 19:09 | 49.46919 | 16.39586 | 37272 ft | 456 kts | 37° |
| 2026-04-26 19:09 | 49.51636 | 16.46047 | 37264 ft | 455 kts | 37° |
| 2026-04-26 19:10 | 49.56368 | 16.52545 | 37269 ft | 455 kts | 37° |
| 2026-04-26 19:10 | 49.61086 | 16.59042 | 37271 ft | 455 kts | 37° |
| 2026-04-26 19:11 | 49.65806 | 16.65560 | 37266 ft | 454 kts | 37° |
| 2026-04-26 19:11 | 49.70486 | 16.72040 | 37275 ft | 454 kts | 37° |
| 2026-04-26 19:12 | 49.75189 | 16.78568 | 37274 ft | 454 kts | 37° |
| 2026-04-26 19:12 | 49.79889 | 16.85112 | 37276 ft | 454 kts | 37° |
| 2026-04-26 19:13 | 49.84576 | 16.91653 | 37280 ft | 453 kts | 37° |
| 2026-04-26 19:13 | 49.89226 | 16.98162 | 37286 ft | 453 kts | 37° |
| 2026-04-26 19:14 | 49.93916 | 17.04742 | 37280 ft | 453 kts | 37° |
| 2026-04-26 19:14 | 49.98580 | 17.11307 | 37280 ft | 452 kts | 37° |
| 2026-04-26 19:15 | 50.03238 | 17.17881 | 37284 ft | 452 kts | 37° |
| 2026-04-26 19:15 | 50.07894 | 17.24470 | 37288 ft | 451 kts | 37° |
| 2026-04-26 19:16 | 50.12514 | 17.31024 | 37297 ft | 452 kts | 37° |
| 2026-04-26 19:16 | 50.17158 | 17.37629 | 37292 ft | 451 kts | 37° |
| 2026-04-26 19:17 | 50.21804 | 17.44252 | 37293 ft | 451 kts | 37° |
| 2026-04-26 19:17 | 50.26412 | 17.50838 | 37292 ft | 451 kts | 37° |
| 2026-04-26 19:18 | 50.31066 | 17.57457 | 37290 ft | 451 kts | 37° |
| 2026-04-26 19:18 | 50.35714 | 17.64081 | 37289 ft | 451 kts | 37° |
| 2026-04-26 19:19 | 50.40324 | 17.70668 | 37291 ft | 451 kts | 37° |
| 2026-04-26 19:19 | 50.44968 | 17.77323 | 37291 ft | 451 kts | 37° |
| 2026-04-26 19:20 | 50.49604 | 17.83984 | 37289 ft | 451 kts | 37° |
| 2026-04-26 19:20 | 50.54236 | 17.90659 | 37290 ft | 452 kts | 37° |
| 2026-04-26 19:21 | 50.58867 | 17.97350 | 37291 ft | 451 kts | 37° |
| 2026-04-26 19:21 | 50.63472 | 18.04021 | 37297 ft | 452 kts | 37° |
| 2026-04-26 19:22 | 50.68089 | 18.10730 | 37286 ft | 451 kts | 37° |
| 2026-04-26 19:22 | 50.72709 | 18.17462 | 37288 ft | 451 kts | 37° |
| 2026-04-26 19:23 | 50.77293 | 18.24160 | 37284 ft | 451 kts | 37° |
| 2026-04-26 19:23 | 50.81900 | 18.30911 | 37289 ft | 451 kts | 37° |
| 2026-04-26 19:24 | 50.86507 | 18.37680 | 37286 ft | 451 kts | 36° |
| 2026-04-26 19:24 | 50.93379 | 18.47813 | 37283 ft | 450 kts | 36° |
| 2026-04-26 19:25 | 50.96418 | 18.52307 | 37283 ft | 450 kts | 36° |
| 2026-04-26 19:25 | 51.02764 | 18.60735 | 37281 ft | 444 kts | 30° |
| 2026-04-26 19:26 | 51.07679 | 18.66702 | 37285 ft | 444 kts | 31° |
| 2026-04-26 19:26 | 51.12566 | 18.72725 | 37283 ft | 444 kts | 31° |
| 2026-04-26 19:27 | 51.17446 | 18.78765 | 37274 ft | 444 kts | 31° |
| 2026-04-26 19:27 | 51.22321 | 18.84816 | 37283 ft | 443 kts | 31° |
| 2026-04-26 19:28 | 51.27187 | 18.90873 | 37281 ft | 443 kts | 31° |
| 2026-04-26 19:28 | 51.32048 | 18.96941 | 37279 ft | 443 kts | 31° |
| 2026-04-26 19:29 | 51.36878 | 19.02986 | 37276 ft | 443 kts | 31° |
| 2026-04-26 19:29 | 51.41725 | 19.09070 | 37272 ft | 442 kts | 31° |
| 2026-04-26 19:30 | 51.46569 | 19.15165 | 37271 ft | 442 kts | 31° |
| 2026-04-26 19:30 | 51.49803 | 19.19245 | 37273 ft | 442 kts | 31° |
| 2026-04-26 19:31 | 51.56247 | 19.27396 | 37275 ft | 442 kts | 31° |
| 2026-04-26 19:31 | 51.61052 | 19.33494 | 37275 ft | 441 kts | 31° |
| 2026-04-26 19:32 | 51.65055 | 19.38586 | 37271 ft | 441 kts | 31° |
| 2026-04-26 19:32 | 51.69873 | 19.44732 | 37272 ft | 441 kts | 31° |
| 2026-04-26 19:33 | 51.74654 | 19.50848 | 37272 ft | 440 kts | 31° |
| 2026-04-26 19:33 | 51.79452 | 19.57002 | 37269 ft | 440 kts | 31° |
| 2026-04-26 19:34 | 51.84240 | 19.63162 | 37263 ft | 439 kts | 31° |
| 2026-04-26 19:34 | 51.89020 | 19.69327 | 37270 ft | 439 kts | 31° |
| 2026-04-26 19:35 | 51.93786 | 19.75492 | 37272 ft | 438 kts | 31° |
| 2026-04-26 19:35 | 51.98546 | 19.81666 | 37269 ft | 438 kts | 31° |
| 2026-04-26 19:36 | 52.02492 | 19.86797 | 37270 ft | 438 kts | 31° |
| 2026-04-26 19:36 | 52.08046 | 19.94040 | 37270 ft | 437 kts | 31° |
| 2026-04-26 19:37 | 52.12790 | 20.00245 | 37272 ft | 437 kts | 31° |
| 2026-04-26 19:37 | 52.17487 | 20.06408 | 37268 ft | 436 kts | 31° |
| 2026-04-26 19:38 | 52.22216 | 20.12628 | 37271 ft | 436 kts | 31° |
| 2026-04-26 19:38 | 52.26935 | 20.18853 | 37267 ft | 436 kts | 31° |
| 2026-04-26 19:39 | 52.31631 | 20.25066 | 37273 ft | 435 kts | 31° |
| 2026-04-26 19:39 | 52.36330 | 20.31299 | 37259 ft | 435 kts | 31° |
| 2026-04-26 19:40 | 52.41040 | 20.37565 | 37265 ft | 435 kts | 31° |
| 2026-04-26 19:40 | 52.45725 | 20.43816 | 37269 ft | 434 kts | 31° |
| 2026-04-26 19:41 | 52.50414 | 20.50090 | 37271 ft | 434 kts | 31° |
| 2026-04-26 19:41 | 52.54298 | 20.55300 | 37275 ft | 433 kts | 31° |
| 2026-04-26 19:42 | 52.59724 | 20.62599 | 37273 ft | 433 kts | 31° |
| 2026-04-26 19:42 | 52.64392 | 20.68899 | 37263 ft | 433 kts | 31° |
| 2026-04-26 19:43 | 52.69038 | 20.75185 | 37263 ft | 432 kts | 31° |
| 2026-04-26 19:43 | 52.73680 | 20.81484 | 37261 ft | 432 kts | 31° |
| 2026-04-26 19:44 | 52.78316 | 20.87794 | 37258 ft | 431 kts | 31° |
| 2026-04-26 19:44 | 52.82931 | 20.94092 | 37258 ft | 431 kts | 31° |
| 2026-04-26 19:45 | 52.87557 | 21.00425 | 37252 ft | 431 kts | 31° |
| 2026-04-26 19:45 | 52.92174 | 21.06762 | 37248 ft | 430 kts | 31° |
| 2026-04-26 19:46 | 52.96781 | 21.13104 | 37252 ft | 430 kts | 31° |
| 2026-04-26 19:46 | 53.01384 | 21.19459 | 37251 ft | 430 kts | 31° |
| 2026-04-26 19:47 | 53.05203 | 21.24745 | 37249 ft | 430 kts | 31° |
| 2026-04-26 19:47 | 53.10544 | 21.32160 | 37248 ft | 429 kts | 31° |
| 2026-04-26 19:48 | 53.15136 | 21.38552 | 37229 ft | 429 kts | 31° |
| 2026-04-26 19:48 | 53.19673 | 21.44890 | 37248 ft | 429 kts | 31° |
| 2026-04-26 19:49 | 53.24247 | 21.51295 | 37241 ft | 428 kts | 31° |
| 2026-04-26 19:49 | 53.28809 | 21.57701 | 37231 ft | 428 kts | 31° |
| 2026-04-26 19:50 | 53.33363 | 21.64117 | 37238 ft | 428 kts | 31° |
| 2026-04-26 19:50 | 53.37903 | 21.70530 | 37189 ft | 428 kts | 31° |
| 2026-04-26 19:51 | 53.40179 | 21.73752 | 36782 ft | 426 kts | 31° |
| 2026-04-26 19:51 | 53.42437 | 21.76953 | 36367 ft | 425 kts | 31° |
| 2026-04-26 19:51 | 53.44696 | 21.80159 | 35965 ft | 425 kts | 31° |
| 2026-04-26 19:51 | 53.46925 | 21.83329 | 35565 ft | 425 kts | 31° |
| 2026-04-26 19:52 | 53.49175 | 21.86533 | 35168 ft | 425 kts | 30° |
| 2026-04-26 19:52 | 53.51431 | 21.89750 | 34780 ft | 425 kts | 30° |
| 2026-04-26 19:52 | 53.53683 | 21.92965 | 34393 ft | 425 kts | 30° |
| 2026-04-26 19:52 | 53.55939 | 21.96191 | 33968 ft | 425 kts | 30° |
| 2026-04-26 19:53 | 53.58197 | 21.99426 | 33528 ft | 425 kts | 30° |
| 2026-04-26 19:53 | 53.60451 | 22.02658 | 33081 ft | 426 kts | 30° |
| 2026-04-26 19:53 | 53.62709 | 22.05903 | 32646 ft | 426 kts | 30° |
| 2026-04-26 19:53 | 53.64966 | 22.09149 | 32213 ft | 426 kts | 30° |
| 2026-04-26 19:54 | 53.67225 | 22.12403 | 31798 ft | 427 kts | 30° |
| 2026-04-26 19:54 | 53.69453 | 22.15618 | 31395 ft | 427 kts | 30° |
| 2026-04-26 19:54 | 53.71739 | 22.18921 | 30977 ft | 427 kts | 30° |
| 2026-04-26 19:54 | 53.73966 | 22.22143 | 30587 ft | 427 kts | 30° |
| 2026-04-26 19:55 | 53.76225 | 22.25417 | 30167 ft | 427 kts | 30° |
| 2026-04-26 19:55 | 53.78479 | 22.28688 | 29702 ft | 427 kts | 30° |
| 2026-04-26 19:55 | 53.80736 | 22.31968 | 29253 ft | 428 kts | 30° |
| 2026-04-26 19:55 | 53.83004 | 22.35268 | 28795 ft | 429 kts | 30° |
| 2026-04-26 19:56 | 53.85262 | 22.38559 | 28342 ft | 429 kts | 31° |
| 2026-04-26 19:56 | 53.87528 | 22.41868 | 27906 ft | 430 kts | 31° |
| 2026-04-26 19:56 | 53.89800 | 22.45189 | 27475 ft | 431 kts | 31° |
| 2026-04-26 19:56 | 53.92039 | 22.48466 | 27048 ft | 432 kts | 31° |
| 2026-04-26 19:57 | 53.94311 | 22.51798 | 26633 ft | 432 kts | 31° |
| 2026-04-26 19:57 | 53.96592 | 22.55148 | 26214 ft | 433 kts | 31° |
| 2026-04-26 19:57 | 53.98874 | 22.58504 | 25805 ft | 434 kts | 31° |
| 2026-04-26 19:57 | 54.01153 | 22.61860 | 25396 ft | 432 kts | 31° |
| 2026-04-26 19:58 | 54.03418 | 22.65201 | 25020 ft | 430 kts | 31° |
| 2026-04-26 19:58 | 54.05670 | 22.68528 | 24632 ft | 427 kts | 31° |
| 2026-04-26 19:58 | 54.07909 | 22.71840 | 24254 ft | 424 kts | 31° |
| 2026-04-26 19:58 | 54.10128 | 22.75129 | 23883 ft | 421 kts | 31° |
| 2026-04-26 19:59 | 54.12325 | 22.78388 | 23462 ft | 418 kts | 31° |
| 2026-04-26 19:59 | 54.14515 | 22.81643 | 23022 ft | 415 kts | 31° |
| 2026-04-26 19:59 | 54.16684 | 22.84871 | 22581 ft | 412 kts | 31° |
| 2026-04-26 19:59 | 54.18836 | 22.88077 | 22158 ft | 408 kts | 31° |
| 2026-04-26 20:00 | 54.20939 | 22.91216 | 21734 ft | 405 kts | 31° |
| 2026-04-26 20:00 | 54.23050 | 22.94371 | 21328 ft | 402 kts | 31° |
| 2026-04-26 20:00 | 54.25148 | 22.97515 | 20914 ft | 399 kts | 32° |
| 2026-04-26 20:00 | 54.27110 | 23.00904 | 20492 ft | 400 kts | 36° |
| 2026-04-26 20:01 | 54.29013 | 23.04309 | 20037 ft | 392 kts | 36° |
| 2026-04-26 20:01 | 54.30868 | 23.07598 | 19671 ft | 377 kts | 35° |
| 2026-04-26 20:01 | 54.32663 | 23.10762 | 19297 ft | 363 kts | 35° |
| 2026-04-26 20:01 | 54.34408 | 23.13826 | 18920 ft | 355 kts | 34° |
| 2026-04-26 20:02 | 54.36113 | 23.16823 | 18544 ft | 348 kts | 34° |
| 2026-04-26 20:02 | 54.37789 | 23.19776 | 18127 ft | 342 kts | 34° |
| 2026-04-26 20:02 | 54.39436 | 23.22680 | 17694 ft | 336 kts | 34° |
| 2026-04-26 20:02 | 54.40511 | 23.24577 | 17407 ft | 333 kts | 35° |
| 2026-04-26 20:03 | 54.42649 | 23.28356 | 16831 ft | 326 kts | 35° |
| 2026-04-26 20:03 | 54.44215 | 23.31128 | 16419 ft | 321 kts | 35° |
| 2026-04-26 20:03 | 54.45742 | 23.33831 | 16055 ft | 316 kts | 35° |
| 2026-04-26 20:03 | 54.47259 | 23.36522 | 15696 ft | 311 kts | 35° |
| 2026-04-26 20:04 | 54.48752 | 23.39173 | 15335 ft | 306 kts | 36° |
| 2026-04-26 20:04 | 54.50222 | 23.41787 | 14972 ft | 302 kts | 36° |
| 2026-04-26 20:04 | 54.51676 | 23.44376 | 14627 ft | 298 kts | 36° |
| 2026-04-26 20:04 | 54.53104 | 23.46920 | 14306 ft | 293 kts | 36° |
| 2026-04-26 20:05 | 54.54517 | 23.49438 | 14060 ft | 288 kts | 36° |
| 2026-04-26 20:05 | 54.55893 | 23.51895 | 13783 ft | 284 kts | 36° |
| 2026-04-26 20:05 | 54.57256 | 23.54331 | 13494 ft | 279 kts | 36° |
| 2026-04-26 20:05 | 54.58591 | 23.56717 | 13196 ft | 275 kts | 36° |
| 2026-04-26 20:06 | 54.59912 | 23.59083 | 12914 ft | 271 kts | 37° |
| 2026-04-26 20:06 | 54.61209 | 23.61409 | 12625 ft | 267 kts | 37° |
| 2026-04-26 20:06 | 54.62492 | 23.63709 | 12333 ft | 265 kts | 37° |
| 2026-04-26 20:06 | 54.63750 | 23.65970 | 12069 ft | 264 kts | 37° |
| 2026-04-26 20:07 | 54.65021 | 23.68255 | 11791 ft | 263 kts | 37° |
| 2026-04-26 20:07 | 54.66287 | 23.70532 | 11525 ft | 262 kts | 37° |
| 2026-04-26 20:07 | 54.67548 | 23.72804 | 11247 ft | 261 kts | 37° |
| 2026-04-26 20:07 | 54.68801 | 23.75063 | 10977 ft | 259 kts | 37° |
| 2026-04-26 20:08 | 54.70043 | 23.77304 | 10714 ft | 258 kts | 37° |
| 2026-04-26 20:08 | 54.71284 | 23.79545 | 10444 ft | 256 kts | 37° |
| 2026-04-26 20:08 | 54.72513 | 23.81768 | 10183 ft | 255 kts | 37° |
| 2026-04-26 20:08 | 54.73740 | 23.83988 | 9920 ft | 254 kts | 37° |
| 2026-04-26 20:09 | 54.74956 | 23.86191 | 9636 ft | 252 kts | 37° |
| 2026-04-26 20:09 | 54.76163 | 23.88379 | 9358 ft | 251 kts | 37° |
| 2026-04-26 20:09 | 54.77368 | 23.90566 | 9111 ft | 250 kts | 37° |
| 2026-04-26 20:09 | 54.78564 | 23.92741 | 8855 ft | 249 kts | 38° |
| 2026-04-26 20:10 | 54.79480 | 23.95359 | 8586 ft | 266 kts | 63° |
| 2026-04-26 20:10 | 54.79826 | 23.98557 | 8360 ft | 270 kts | 71° |
| 2026-04-26 20:10 | 54.80107 | 24.01772 | 8113 ft | 269 kts | 71° |
| 2026-04-26 20:10 | 54.80379 | 24.04974 | 7852 ft | 268 kts | 72° |
| 2026-04-26 20:11 | 54.80643 | 24.08119 | 7626 ft | 266 kts | 72° |
| 2026-04-26 20:11 | 54.80905 | 24.11285 | 7384 ft | 265 kts | 72° |
| 2026-04-26 20:11 | 54.81165 | 24.14446 | 7132 ft | 264 kts | 72° |
| 2026-04-26 20:12 | 54.81685 | 24.20735 | 6665 ft | 261 kts | 70° |
| 2026-04-26 20:12 | 54.82169 | 24.23700 | 6433 ft | 253 kts | 62° |
| 2026-04-26 20:12 | 54.82699 | 24.26572 | 6272 ft | 247 kts | 63° |
| 2026-04-26 20:12 | 54.83203 | 24.29388 | 6081 ft | 241 kts | 63° |
| 2026-04-26 20:13 | 54.83686 | 24.32137 | 5882 ft | 233 kts | 63° |
| 2026-04-26 20:13 | 54.84151 | 24.34814 | 5648 ft | 230 kts | 63° |
| 2026-04-26 20:13 | 54.84598 | 24.37409 | 5472 ft | 218 kts | 63° |
| 2026-04-26 20:13 | 54.85014 | 24.39842 | 5366 ft | 209 kts | 63° |
| 2026-04-26 20:14 | 54.85558 | 24.42108 | 5159 ft | 196 kts | 43° |
| 2026-04-26 20:14 | 54.86562 | 24.43501 | 4877 ft | 180 kts | 16° |
| 2026-04-26 20:14 | 54.87755 | 24.43886 | 4619 ft | 173 kts | 354° |
| 2026-04-26 20:14 | 54.88936 | 24.43602 | 4432 ft | 171 kts | 347° |
| 2026-04-26 20:15 | 54.90100 | 24.43191 | 4327 ft | 171 kts | 346° |
| 2026-04-26 20:15 | 54.91263 | 24.42727 | 4206 ft | 171 kts | 344° |
| 2026-04-26 20:15 | 54.92418 | 24.42227 | 4096 ft | 171 kts | 343° |
| 2026-04-26 20:15 | 54.93537 | 24.41716 | 3956 ft | 159 kts | 343° |
| 2026-04-26 20:16 | 54.94578 | 24.41223 | 3826 ft | 152 kts | 342° |
| 2026-04-26 20:16 | 54.95591 | 24.40733 | 3715 ft | 151 kts | 342° |
| 2026-04-26 20:16 | 54.96593 | 24.40199 | 3583 ft | 150 kts | 334° |
| 2026-04-26 20:16 | 54.97291 | 24.38896 | 3355 ft | 154 kts | 298° |
| 2026-04-26 20:17 | 54.97557 | 24.37056 | 3169 ft | 159 kts | 287° |
| 2026-04-26 20:17 | 54.97629 | 24.35110 | 3014 ft | 162 kts | 279° |
| 2026-04-26 20:17 | 54.97594 | 24.33162 | 2914 ft | 164 kts | 276° |
| 2026-04-26 20:17 | 54.97541 | 24.31826 | 2769 ft | 159 kts | 275° |
| 2026-04-26 20:18 | 54.97423 | 24.29440 | 2518 ft | 142 kts | 275° |
| 2026-04-26 20:18 | 54.97341 | 24.27740 | 2327 ft | 140 kts | 275° |
| 2026-04-26 20:18 | 54.97260 | 24.26093 | 2152 ft | 133 kts | 275° |
| 2026-04-26 20:18 | 54.97182 | 24.24506 | 1988 ft | 130 kts | 275° |
| 2026-04-26 20:19 | 54.97131 | 24.23464 | 1861 ft | 130 kts | 274° |
| 2026-04-26 20:19 | 54.97055 | 24.21903 | 1679 ft | 129 kts | 274° |
| 2026-04-26 20:19 | 54.96976 | 24.20333 | 1500 ft | 130 kts | 274° |
| 2026-04-26 20:19 | 54.96892 | 24.18767 | 1274 ft | 130 kts | 271° |
| 2026-04-26 20:20 | 54.96812 | 24.17169 | 1059 ft | 134 kts | 270° |
| 2026-04-26 20:20 | 54.96740 | 24.15519 | 861 ft | 139 kts | 269° |
| 2026-04-26 20:20 | 54.96654 | 24.13836 | 667 ft | 140 kts | 268° |
| 2026-04-26 20:20 | 54.96567 | 24.12152 | 491 ft | 140 kts | 268° |
| 2026-04-26 20:21 | 54.96483 | 24.10468 | 308 ft | 140 kts | 268° |
| 2026-04-26 20:21 | 54.96409 | 24.08938 | 271 ft | 107 kts | 265° |
| 2026-04-26 20:21 | 54.96368 | 24.08088 | 271 ft | 43 kts | 264° |
| 2026-04-26 20:21 | 54.96341 | 24.07566 | 268 ft | 33 kts | 264° |
| 2026-04-26 20:22 | 54.96344 | 24.07372 | 269 ft | 12 kts | 307° |
| 2026-04-26 20:22 | 54.96412 | 24.07341 | 270 ft | 10 kts | 356° |
| 2026-04-26 20:22 | 54.96450 | 24.07335 | 270 ft | 5 kts | 355° |
| 2026-04-26 20:22 | 54.96489 | 24.07357 | 270 ft | 7 kts | 47° |
| 2026-04-26 20:23 | 54.96499 | 24.07424 | 270 ft | 6 kts | 85° |
| 2026-04-26 20:23 | 54.96504 | 24.07468 | 270 ft | 3 kts | 63° |
| 2026-04-26 20:23 | 54.96527 | 24.07486 | 270 ft | 5 kts | 357° |
| 2026-04-26 20:23 | 54.96555 | 24.07483 | 270 ft | 5 kts | 356° |
| 2026-04-26 20:24 | 54.96598 | 24.07478 | 270 ft | 6 kts | 356° |
| 2026-04-26 20:24 | 54.96634 | 24.07477 | 270 ft | 6 kts | 13° |
| 2026-04-26 20:24 | 54.96644 | 24.07514 | 270 ft | 4 kts | 94° |
| 2026-04-26 20:24 | 54.96640 | 24.07551 | 270 ft | 1 kts | 103° |
| 2026-04-26 20:25 | 54.96638 | 24.07561 | 270 ft | 0 kts | 103° |